createdAt,value
2017-01-26T00:00:06.723Z,652
2017-01-26T00:00:47.308Z,652
2017-01-26T00:01:27.897Z,652
2017-01-26T00:02:08.490Z,652
2017-01-26T00:02:49.077Z,652
2017-01-26T00:03:29.705Z,652
2017-01-26T00:04:10.297Z,652
2017-01-26T00:04:50.889Z,652
2017-01-26T00:05:31.466Z,652
2017-01-26T00:06:12.051Z,652
2017-01-26T00:06:52.640Z,652
2017-01-26T00:07:33.218Z,652
2017-01-26T00:08:13.813Z,652
2017-01-26T00:08:54.402Z,652
2017-01-26T00:09:35.008Z,652
2017-01-26T00:10:15.623Z,652
2017-01-26T00:10:56.221Z,652
2017-01-26T00:11:36.819Z,652
2017-01-26T00:12:17.418Z,652
2017-01-26T00:12:58.016Z,652
2017-01-26T00:13:38.620Z,652
2017-01-26T00:14:19.216Z,652
2017-01-26T00:14:59.813Z,652
2017-01-26T00:15:40.424Z,652
2017-01-26T00:16:20.999Z,652
2017-01-26T00:17:01.600Z,652
2017-01-26T00:17:42.182Z,652
2017-01-26T00:18:22.786Z,652
2017-01-26T00:19:03.391Z,652
2017-01-26T00:19:43.991Z,652
2017-01-26T00:20:24.586Z,652
2017-01-26T00:21:05.199Z,652
2017-01-26T00:21:45.787Z,652
2017-01-26T00:22:26.389Z,652
2017-01-26T00:23:06.986Z,652
2017-01-26T00:23:47.562Z,652
2017-01-26T00:24:28.149Z,652
2017-01-26T00:25:08.745Z,652
2017-01-26T00:25:49.331Z,652
2017-01-26T00:26:29.925Z,652
2017-01-26T00:27:10.511Z,652
2017-01-26T00:27:51.107Z,652
2017-01-26T00:28:31.688Z,652
2017-01-26T00:29:12.277Z,652
2017-01-26T00:29:52.872Z,652
2017-01-26T00:30:33.451Z,652
2017-01-26T00:31:14.021Z,652
2017-01-26T00:31:54.610Z,652
2017-01-26T00:32:35.201Z,652
2017-01-26T00:33:15.776Z,652
2017-01-26T00:33:56.366Z,652
2017-01-26T00:34:36.960Z,652
2017-01-26T00:35:17.542Z,652
2017-01-26T00:35:58.134Z,652
2017-01-26T00:36:38.721Z,652
2017-01-26T00:37:19.312Z,652
2017-01-26T00:37:59.921Z,652
2017-01-26T00:38:40.527Z,652
2017-01-26T00:39:21.112Z,652
2017-01-26T00:40:01.693Z,652
2017-01-26T00:40:42.296Z,652
2017-01-26T00:41:22.894Z,652
2017-01-26T00:42:03.488Z,652
2017-01-26T00:42:44.079Z,652
2017-01-26T00:43:24.687Z,652
2017-01-26T00:44:05.297Z,652
2017-01-26T00:44:45.884Z,652
2017-01-26T00:45:26.497Z,652
2017-01-26T00:46:07.077Z,652
2017-01-26T00:46:47.660Z,652
2017-01-26T00:47:28.232Z,652
2017-01-26T00:48:08.812Z,652
2017-01-26T00:48:49.405Z,652
2017-01-26T00:49:30.005Z,652
2017-01-26T00:50:10.592Z,652
2017-01-26T00:50:51.176Z,652
2017-01-26T00:51:31.757Z,652
2017-01-26T00:52:12.350Z,652
2017-01-26T00:52:52.926Z,652
2017-01-26T00:53:34.326Z,652
2017-01-26T00:54:14.929Z,652
2017-01-26T00:54:55.504Z,652
2017-01-26T00:55:36.094Z,652
2017-01-26T00:56:16.699Z,652
2017-01-26T00:56:57.293Z,652
2017-01-26T00:57:37.888Z,652
2017-01-26T00:58:18.460Z,652
2017-01-26T00:58:59.051Z,652
2017-01-26T00:59:39.657Z,652
2017-01-26T01:00:20.248Z,652
2017-01-26T01:01:00.836Z,652
2017-01-26T01:01:41.416Z,652
2017-01-26T01:02:22.003Z,652
2017-01-26T01:03:02.601Z,652
2017-01-26T01:03:43.175Z,652
2017-01-26T01:04:23.765Z,652
2017-01-26T01:05:04.403Z,652
2017-01-26T01:05:44.963Z,652
2017-01-26T01:06:25.545Z,652
2017-01-26T01:07:06.149Z,652
2017-01-26T01:07:46.729Z,652
2017-01-26T01:08:27.334Z,652
2017-01-26T01:09:07.924Z,652
2017-01-26T01:09:48.552Z,652
2017-01-26T01:10:29.133Z,652
2017-01-26T01:11:09.738Z,652
2017-01-26T01:11:50.343Z,652
2017-01-26T01:12:30.941Z,652
2017-01-26T01:13:11.532Z,652
2017-01-26T01:13:52.114Z,652
2017-01-26T01:14:33.250Z,652
2017-01-26T01:15:13.303Z,652
2017-01-26T01:15:53.891Z,652
2017-01-26T01:16:34.504Z,652
2017-01-26T01:17:15.095Z,652
2017-01-26T01:17:55.678Z,652
2017-01-26T01:18:36.285Z,652
2017-01-26T01:19:18.253Z,652
2017-01-26T01:19:58.022Z,652
2017-01-26T01:20:38.616Z,652
2017-01-26T01:21:19.218Z,652
2017-01-26T01:21:59.798Z,652
2017-01-26T01:22:40.401Z,652
2017-01-26T01:23:20.989Z,652
2017-01-26T01:24:01.586Z,652
2017-01-26T01:24:42.181Z,652
2017-01-26T01:25:22.779Z,652
2017-01-26T01:26:03.384Z,652
2017-01-26T01:26:43.985Z,652
2017-01-26T01:27:24.581Z,652
2017-01-26T01:28:05.171Z,652
2017-01-26T01:28:45.751Z,652
2017-01-26T01:29:26.345Z,652
2017-01-26T01:30:06.933Z,652
2017-01-26T01:30:47.514Z,652
2017-01-26T01:31:28.108Z,652
2017-01-26T01:32:08.697Z,652
2017-01-26T01:32:49.280Z,652
2017-01-26T01:33:29.865Z,652
2017-01-26T01:34:10.456Z,652
2017-01-26T01:34:51.047Z,652
2017-01-26T01:35:31.641Z,652
2017-01-26T01:36:12.233Z,652
2017-01-26T01:36:52.815Z,652
2017-01-26T01:37:33.413Z,652
2017-01-26T01:38:14.017Z,652
2017-01-26T01:38:54.629Z,652
2017-01-26T01:39:35.229Z,652
2017-01-26T01:40:15.820Z,652
2017-01-26T01:40:56.414Z,652
2017-01-26T01:41:37.016Z,652
2017-01-26T01:42:17.596Z,652
2017-01-26T01:42:58.177Z,652
2017-01-26T01:43:38.766Z,652
2017-01-26T01:44:19.372Z,652
2017-01-26T01:44:59.949Z,652
2017-01-26T01:45:40.526Z,652
2017-01-26T01:46:21.123Z,652
2017-01-26T01:47:01.709Z,652
2017-01-26T01:47:42.294Z,652
2017-01-26T01:48:22.907Z,652
2017-01-26T01:49:03.501Z,652
2017-01-26T01:49:44.079Z,652
2017-01-26T01:50:24.673Z,652
2017-01-26T01:51:05.256Z,652
2017-01-26T01:51:45.836Z,652
2017-01-26T01:52:26.436Z,652
2017-01-26T01:53:07.023Z,652
2017-01-26T01:53:47.617Z,652
2017-01-26T01:54:28.204Z,652
2017-01-26T01:55:08.795Z,652
2017-01-26T01:55:49.381Z,652
2017-01-26T01:56:29.962Z,652
2017-01-26T01:57:10.586Z,652
2017-01-26T01:57:51.179Z,652
2017-01-26T01:58:31.773Z,652
2017-01-26T01:59:12.360Z,652
2017-01-26T01:59:52.940Z,652
2017-01-26T02:00:33.577Z,652
2017-01-26T02:01:14.242Z,652
2017-01-26T02:01:54.822Z,652
2017-01-26T02:02:35.420Z,652
2017-01-26T02:03:16.017Z,652
2017-01-26T02:03:56.606Z,652
2017-01-26T02:04:37.197Z,652
2017-01-26T02:05:17.778Z,652
2017-01-26T02:05:58.358Z,652
2017-01-26T02:06:38.940Z,652
2017-01-26T02:07:19.562Z,652
2017-01-26T02:08:00.153Z,652
2017-01-26T02:08:40.748Z,652
2017-01-26T02:09:21.344Z,652
2017-01-26T02:10:01.928Z,652
2017-01-26T02:10:42.522Z,652
2017-01-26T02:11:23.107Z,652
2017-01-26T02:12:03.686Z,652
2017-01-26T02:12:44.274Z,652
2017-01-26T02:13:24.853Z,652
2017-01-26T02:14:05.426Z,652
2017-01-26T02:14:46.010Z,652
2017-01-26T02:15:26.604Z,652
2017-01-26T02:16:07.197Z,652
2017-01-26T02:16:47.812Z,652
2017-01-26T02:17:28.416Z,652
2017-01-26T02:18:08.995Z,652
2017-01-26T02:18:49.606Z,652
2017-01-26T02:19:30.218Z,652
2017-01-26T02:20:10.811Z,652
2017-01-26T02:20:51.404Z,652
2017-01-26T02:21:31.984Z,652
2017-01-26T02:22:12.588Z,652
2017-01-26T02:22:53.195Z,652
2017-01-26T02:23:33.801Z,652
2017-01-26T02:24:14.404Z,652
2017-01-26T02:24:54.992Z,652
2017-01-26T02:25:35.614Z,652
2017-01-26T02:26:16.163Z,652
2017-01-26T02:26:56.754Z,652
2017-01-26T02:27:37.346Z,652
2017-01-26T02:28:17.924Z,652
2017-01-26T02:28:58.514Z,652
2017-01-26T02:29:39.102Z,652
2017-01-26T02:30:19.679Z,652
2017-01-26T02:31:00.258Z,652
2017-01-26T02:31:40.840Z,652
2017-01-26T02:32:21.421Z,652
2017-01-26T02:33:02.015Z,652
2017-01-26T02:33:42.605Z,652
2017-01-26T02:34:23.183Z,652
2017-01-26T02:35:03.758Z,652
2017-01-26T02:35:44.341Z,652
2017-01-26T02:36:24.932Z,652
2017-01-26T02:37:05.522Z,652
2017-01-26T02:37:46.102Z,652
2017-01-26T02:38:26.729Z,652
2017-01-26T02:39:07.317Z,652
2017-01-26T02:39:47.900Z,652
2017-01-26T02:40:28.489Z,652
2017-01-26T02:41:09.080Z,652
2017-01-26T02:41:49.663Z,652
2017-01-26T02:42:30.240Z,652
2017-01-26T02:43:10.828Z,652
2017-01-26T02:43:51.444Z,652
2017-01-26T02:44:32.034Z,652
2017-01-26T02:45:12.620Z,652
2017-01-26T02:45:53.203Z,652
2017-01-26T02:46:33.793Z,652
2017-01-26T02:47:14.373Z,652
2017-01-26T02:47:54.978Z,652
2017-01-26T02:48:35.568Z,652
2017-01-26T02:49:16.182Z,652
2017-01-26T02:49:56.766Z,652
2017-01-26T02:50:37.356Z,652
2017-01-26T02:51:17.954Z,652
2017-01-26T02:51:58.562Z,652
2017-01-26T02:52:39.157Z,652
2017-01-26T02:53:19.745Z,652
2017-01-26T02:54:00.328Z,652
2017-01-26T02:54:40.923Z,652
2017-01-26T02:55:21.513Z,652
2017-01-26T02:56:02.100Z,652
2017-01-26T02:56:42.684Z,652
2017-01-26T02:57:23.265Z,652
2017-01-26T02:58:03.867Z,652
2017-01-26T02:58:44.450Z,652
2017-01-26T02:59:25.024Z,652
2017-01-26T03:00:05.618Z,652
2017-01-26T03:00:46.207Z,652
2017-01-26T03:01:26.790Z,652
2017-01-26T03:02:07.384Z,652
2017-01-26T03:02:47.982Z,652
2017-01-26T03:03:28.592Z,652
2017-01-26T03:04:09.200Z,652
2017-01-26T03:04:49.801Z,652
2017-01-26T03:05:30.404Z,652
2017-01-26T03:06:10.987Z,652
2017-01-26T03:06:51.586Z,652
2017-01-26T03:07:32.163Z,652
2017-01-26T03:08:12.754Z,652
2017-01-26T03:08:53.342Z,652
2017-01-26T03:09:33.925Z,652
2017-01-26T03:10:14.509Z,652
2017-01-26T03:10:55.091Z,652
2017-01-26T03:11:35.685Z,652
2017-01-26T03:12:16.270Z,652
2017-01-26T03:12:56.870Z,652
2017-01-26T03:13:37.469Z,652
2017-01-26T03:14:18.059Z,652
2017-01-26T03:14:58.663Z,652
2017-01-26T03:15:39.256Z,652
2017-01-26T03:16:19.861Z,652
2017-01-26T03:17:00.464Z,652
2017-01-26T03:17:41.051Z,652
2017-01-26T03:18:21.638Z,652
2017-01-26T03:19:02.256Z,652
2017-01-26T03:19:42.837Z,652
2017-01-26T03:20:23.421Z,652
2017-01-26T03:21:04.016Z,652
2017-01-26T03:21:44.605Z,652
2017-01-26T03:22:25.186Z,652
2017-01-26T03:23:05.768Z,652
2017-01-26T03:23:46.350Z,652
2017-01-26T03:24:26.941Z,652
2017-01-26T03:25:07.537Z,652
2017-01-26T03:25:48.126Z,652
2017-01-26T03:26:28.726Z,652
2017-01-26T03:27:09.313Z,652
2017-01-26T03:27:49.896Z,652
2017-01-26T03:28:30.489Z,652
2017-01-26T03:29:11.080Z,652
2017-01-26T03:29:51.697Z,652
2017-01-26T03:30:32.271Z,652
2017-01-26T03:31:12.854Z,652
2017-01-26T03:31:53.438Z,652
2017-01-26T03:32:34.038Z,652
2017-01-26T03:33:14.651Z,652
2017-01-26T03:33:55.239Z,652
2017-01-26T03:34:35.820Z,652
2017-01-26T03:35:16.405Z,652
2017-01-26T03:35:57.002Z,652
2017-01-26T03:36:37.579Z,652
2017-01-26T03:37:18.161Z,652
2017-01-26T03:37:58.765Z,652
2017-01-26T03:38:39.359Z,652
2017-01-26T03:39:19.941Z,652
2017-01-26T03:40:00.530Z,652
2017-01-26T03:40:41.131Z,652
2017-01-26T03:41:21.725Z,652
2017-01-26T03:42:02.312Z,652
2017-01-26T03:42:42.915Z,652
2017-01-26T03:43:23.523Z,652
2017-01-26T03:44:04.130Z,652
2017-01-26T03:44:44.724Z,652
2017-01-26T03:45:25.309Z,652
2017-01-26T03:46:05.897Z,652
2017-01-26T03:46:46.496Z,652
2017-01-26T03:47:27.087Z,652
2017-01-26T03:48:07.680Z,652
2017-01-26T03:48:48.289Z,652
2017-01-26T03:49:28.889Z,652
2017-01-26T03:50:09.476Z,652
2017-01-26T03:50:50.088Z,652
2017-01-26T03:51:30.641Z,652
2017-01-26T03:52:11.218Z,652
2017-01-26T03:52:51.802Z,652
2017-01-26T03:53:33.351Z,652
2017-01-26T03:54:12.996Z,652
2017-01-26T03:54:53.606Z,652
2017-01-26T03:55:34.852Z,652
2017-01-26T03:56:14.801Z,652
2017-01-26T03:56:55.397Z,652
2017-01-26T03:57:35.989Z,652
2017-01-26T03:58:16.599Z,652
2017-01-26T03:58:57.208Z,652
2017-01-26T03:59:37.801Z,652
2017-01-26T04:00:18.383Z,652
2017-01-26T04:00:58.965Z,652
2017-01-26T04:01:39.571Z,652
2017-01-26T04:02:20.161Z,652
2017-01-26T04:03:00.747Z,652
2017-01-26T04:03:41.322Z,652
2017-01-26T04:04:21.933Z,652
2017-01-26T04:05:02.516Z,652
2017-01-26T04:05:43.107Z,652
2017-01-26T04:06:23.686Z,652
2017-01-26T04:07:04.279Z,652
2017-01-26T04:07:44.885Z,652
2017-01-26T04:08:25.483Z,652
2017-01-26T04:09:06.080Z,652
2017-01-26T04:09:46.668Z,652
2017-01-26T04:10:27.253Z,652
2017-01-26T04:11:07.847Z,652
2017-01-26T04:11:48.431Z,652
2017-01-26T04:12:29.024Z,652
2017-01-26T04:13:09.601Z,652
2017-01-26T04:13:50.201Z,652
2017-01-26T04:14:30.789Z,652
2017-01-26T04:15:11.389Z,652
2017-01-26T04:15:51.981Z,652
2017-01-26T04:16:32.585Z,652
2017-01-26T04:17:13.164Z,652
2017-01-26T04:17:53.749Z,652
2017-01-26T04:18:34.354Z,652
2017-01-26T04:19:14.950Z,656
2017-01-26T04:19:55.542Z,652
2017-01-26T04:20:36.129Z,652
2017-01-26T04:21:16.719Z,652
2017-01-26T04:21:57.314Z,652
2017-01-26T04:22:37.899Z,652
2017-01-26T04:23:18.485Z,652
2017-01-26T04:23:59.070Z,652
2017-01-26T04:24:39.670Z,652
2017-01-26T04:25:20.262Z,656
2017-01-26T04:26:00.869Z,652
2017-01-26T04:26:41.459Z,652
2017-01-26T04:27:22.035Z,652
2017-01-26T04:28:02.620Z,652
2017-01-26T04:28:43.255Z,652
2017-01-26T04:29:23.845Z,656
2017-01-26T04:30:04.431Z,656
2017-01-26T04:30:45.011Z,652
2017-01-26T04:31:25.591Z,656
2017-01-26T04:32:06.197Z,652
2017-01-26T04:32:46.795Z,652
2017-01-26T04:33:27.393Z,656
2017-01-26T04:34:07.995Z,652
2017-01-26T04:34:48.594Z,652
2017-01-26T04:35:29.190Z,652
2017-01-26T04:36:09.811Z,648
2017-01-26T04:36:50.402Z,656
2017-01-26T04:37:30.989Z,652
2017-01-26T04:38:11.573Z,652
2017-01-26T04:38:52.182Z,652
2017-01-26T04:39:32.767Z,652
2017-01-26T04:40:13.364Z,656
2017-01-26T04:40:53.979Z,656
2017-01-26T04:41:34.586Z,652
2017-01-26T04:42:15.148Z,656
2017-01-26T04:42:55.745Z,656
2017-01-26T04:43:36.351Z,652
2017-01-26T04:44:16.953Z,652
2017-01-26T04:44:57.550Z,652
2017-01-26T04:45:38.150Z,656
2017-01-26T04:46:18.742Z,652
2017-01-26T04:46:59.338Z,652
2017-01-26T04:47:39.930Z,652
2017-01-26T04:48:20.528Z,656
2017-01-26T04:49:01.123Z,652
2017-01-26T04:49:41.719Z,652
2017-01-26T04:50:22.297Z,652
2017-01-26T04:51:02.892Z,656
2017-01-26T04:51:43.461Z,656
2017-01-26T04:52:24.064Z,652
2017-01-26T04:53:04.643Z,652
2017-01-26T04:53:45.245Z,652
2017-01-26T04:54:25.843Z,652
2017-01-26T04:55:06.420Z,652
2017-01-26T04:55:47.025Z,652
2017-01-26T04:56:27.588Z,652
2017-01-26T04:57:08.184Z,652
2017-01-26T04:57:48.770Z,652
2017-01-26T04:58:29.347Z,652
2017-01-26T04:59:09.941Z,652
2017-01-26T04:59:50.525Z,652
2017-01-26T05:00:31.109Z,652
2017-01-26T05:01:11.696Z,652
2017-01-26T05:01:52.276Z,652
2017-01-26T05:02:32.883Z,652
2017-01-26T05:03:13.481Z,652
2017-01-26T05:03:54.083Z,652
2017-01-26T05:04:34.687Z,652
2017-01-26T05:05:15.267Z,652
2017-01-26T05:05:55.848Z,652
2017-01-26T05:06:36.442Z,652
2017-01-26T05:07:17.021Z,652
2017-01-26T05:07:57.606Z,652
2017-01-26T05:08:38.200Z,652
2017-01-26T05:09:18.774Z,652
2017-01-26T05:09:59.365Z,652
2017-01-26T05:10:39.954Z,652
2017-01-26T05:11:20.528Z,652
2017-01-26T05:12:01.112Z,652
2017-01-26T05:12:41.714Z,652
2017-01-26T05:13:22.317Z,652
2017-01-26T05:14:02.906Z,652
2017-01-26T05:14:43.501Z,652
2017-01-26T05:15:24.127Z,652
2017-01-26T05:16:04.717Z,652
2017-01-26T05:16:45.312Z,652
2017-01-26T05:17:25.901Z,652
2017-01-26T05:18:06.488Z,652
2017-01-26T05:18:47.082Z,652
2017-01-26T05:19:27.679Z,652
2017-01-26T05:20:08.273Z,652
2017-01-26T05:20:48.877Z,652
2017-01-26T05:21:29.486Z,652
2017-01-26T05:22:10.075Z,652
2017-01-26T05:22:50.677Z,652
2017-01-26T05:23:31.248Z,652
2017-01-26T05:24:11.833Z,652
2017-01-26T05:24:52.418Z,652
2017-01-26T05:25:33.013Z,652
2017-01-26T05:26:13.596Z,652
2017-01-26T05:26:54.209Z,652
2017-01-26T05:27:34.806Z,652
2017-01-26T05:28:15.399Z,652
2017-01-26T05:28:55.998Z,652
2017-01-26T05:29:36.592Z,652
2017-01-26T05:30:17.171Z,652
2017-01-26T05:30:57.775Z,652
2017-01-26T05:31:38.387Z,652
2017-01-26T05:32:18.961Z,652
2017-01-26T05:32:59.571Z,652
2017-01-26T05:33:40.181Z,652
2017-01-26T05:34:20.771Z,652
2017-01-26T05:35:01.365Z,652
2017-01-26T05:35:41.960Z,652
2017-01-26T05:36:22.568Z,652
2017-01-26T05:37:03.174Z,652
2017-01-26T05:37:43.766Z,652
2017-01-26T05:38:24.362Z,652
2017-01-26T05:39:04.969Z,652
2017-01-26T05:39:45.569Z,652
2017-01-26T05:40:26.181Z,652
2017-01-26T05:41:06.778Z,652
2017-01-26T05:41:47.379Z,652
2017-01-26T05:42:27.990Z,652
2017-01-26T05:43:08.576Z,652
2017-01-26T05:43:49.194Z,652
2017-01-26T05:44:29.786Z,652
2017-01-26T05:45:10.365Z,652
2017-01-26T05:45:50.976Z,652
2017-01-26T05:46:31.571Z,652
2017-01-26T05:47:12.161Z,652
2017-01-26T05:47:52.752Z,652
2017-01-26T05:48:33.333Z,652
2017-01-26T05:49:13.915Z,652
2017-01-26T05:49:54.508Z,652
2017-01-26T05:50:35.106Z,652
2017-01-26T05:51:15.691Z,652
2017-01-26T05:51:56.285Z,652
2017-01-26T05:52:36.867Z,652
2017-01-26T05:53:17.465Z,652
2017-01-26T05:53:58.062Z,652
2017-01-26T05:54:38.659Z,652
2017-01-26T05:55:19.267Z,652
2017-01-26T05:55:59.855Z,652
2017-01-26T05:56:40.444Z,652
2017-01-26T05:57:21.030Z,652
2017-01-26T05:58:01.626Z,652
2017-01-26T05:58:42.206Z,652
2017-01-26T05:59:22.786Z,660
2017-01-26T06:00:03.396Z,660
2017-01-26T06:00:43.999Z,660
2017-01-26T06:01:24.590Z,660
2017-01-26T06:02:05.181Z,660
2017-01-26T06:02:45.774Z,664
2017-01-26T06:03:26.345Z,664
2017-01-26T06:04:06.939Z,664
2017-01-26T06:04:47.518Z,664
2017-01-26T06:05:28.101Z,664
2017-01-26T06:06:08.703Z,664
2017-01-26T06:06:49.297Z,664
2017-01-26T06:07:29.879Z,664
2017-01-26T06:08:10.458Z,664
2017-01-26T06:08:51.041Z,664
2017-01-26T06:09:31.630Z,664
2017-01-26T06:10:12.216Z,664
2017-01-26T06:10:52.810Z,664
2017-01-26T06:11:33.412Z,664
2017-01-26T06:12:14.013Z,664
2017-01-26T06:12:54.611Z,664
2017-01-26T06:13:35.203Z,664
2017-01-26T06:14:15.792Z,664
2017-01-26T06:14:56.380Z,664
2017-01-26T06:15:36.981Z,664
2017-01-26T06:16:17.586Z,664
2017-01-26T06:16:58.194Z,664
2017-01-26T06:17:38.803Z,664
2017-01-26T06:18:19.402Z,664
2017-01-26T06:19:00.009Z,664
2017-01-26T06:19:40.592Z,664
2017-01-26T06:20:21.176Z,664
2017-01-26T06:21:01.761Z,664
2017-01-26T06:21:42.345Z,664
2017-01-26T06:22:22.933Z,664
2017-01-26T06:23:03.521Z,664
2017-01-26T06:23:44.103Z,664
2017-01-26T06:24:24.681Z,664
2017-01-26T06:25:05.267Z,664
2017-01-26T06:25:45.859Z,664
2017-01-26T06:26:26.450Z,664
2017-01-26T06:27:07.033Z,664
2017-01-26T06:27:47.615Z,664
2017-01-26T06:28:28.192Z,664
2017-01-26T06:29:08.780Z,664
2017-01-26T06:29:49.377Z,664
2017-01-26T06:30:29.975Z,664
2017-01-26T06:31:10.557Z,664
2017-01-26T06:31:51.143Z,664
2017-01-26T06:32:31.730Z,664
2017-01-26T06:33:12.315Z,664
2017-01-26T06:33:52.902Z,664
2017-01-26T06:34:33.504Z,664
2017-01-26T06:35:14.112Z,664
2017-01-26T06:35:54.683Z,664
2017-01-26T06:36:35.273Z,664
2017-01-26T06:37:15.860Z,664
2017-01-26T06:37:56.465Z,664
2017-01-26T06:38:37.062Z,664
2017-01-26T06:39:17.653Z,664
2017-01-26T06:39:58.248Z,664
2017-01-26T06:40:38.841Z,664
2017-01-26T06:41:19.434Z,664
2017-01-26T06:42:00.021Z,664
2017-01-26T06:42:40.608Z,664
2017-01-26T06:43:21.200Z,664
2017-01-26T06:44:01.774Z,664
2017-01-26T06:44:42.357Z,664
2017-01-26T06:45:22.964Z,664
2017-01-26T06:46:03.553Z,664
2017-01-26T06:46:44.148Z,664
2017-01-26T06:47:24.730Z,664
2017-01-26T06:48:05.333Z,664
2017-01-26T06:48:45.924Z,664
2017-01-26T06:49:26.518Z,664
2017-01-26T06:50:07.134Z,664
2017-01-26T06:50:47.741Z,664
2017-01-26T06:51:28.329Z,664
2017-01-26T06:52:08.907Z,664
2017-01-26T06:52:49.497Z,664
2017-01-26T06:53:30.090Z,664
2017-01-26T06:54:10.698Z,664
2017-01-26T06:54:51.260Z,664
2017-01-26T06:55:31.847Z,664
2017-01-26T06:56:12.446Z,664
2017-01-26T06:56:53.028Z,664
2017-01-26T06:57:33.610Z,664
2017-01-26T06:58:14.198Z,664
2017-01-26T06:58:54.807Z,664
2017-01-26T06:59:35.382Z,652
2017-01-26T07:00:15.972Z,652
2017-01-26T07:00:56.567Z,652
2017-01-26T07:01:37.144Z,652
2017-01-26T07:02:17.721Z,652
2017-01-26T07:02:58.308Z,656
2017-01-26T07:03:38.921Z,656
2017-01-26T07:04:19.529Z,656
2017-01-26T07:05:00.108Z,652
2017-01-26T07:05:40.689Z,652
2017-01-26T07:06:21.282Z,652
2017-01-26T07:07:01.889Z,652
2017-01-26T07:07:42.484Z,652
2017-01-26T07:08:23.074Z,652
2017-01-26T07:09:03.665Z,652
2017-01-26T07:09:44.253Z,652
2017-01-26T07:10:24.851Z,656
2017-01-26T07:11:05.447Z,656
2017-01-26T07:11:46.078Z,656
2017-01-26T07:12:26.659Z,656
2017-01-26T07:13:07.263Z,656
2017-01-26T07:13:47.850Z,656
2017-01-26T07:14:28.444Z,652
2017-01-26T07:15:09.026Z,656
2017-01-26T07:15:49.613Z,656
2017-01-26T07:16:30.214Z,656
2017-01-26T07:17:10.812Z,656
2017-01-26T07:17:51.406Z,656
2017-01-26T07:18:31.998Z,656
2017-01-26T07:19:12.590Z,656
2017-01-26T07:19:53.169Z,660
2017-01-26T07:20:33.778Z,660
2017-01-26T07:21:14.361Z,660
2017-01-26T07:21:54.959Z,660
2017-01-26T07:22:35.546Z,660
2017-01-26T07:23:16.138Z,660
2017-01-26T07:23:56.738Z,660
2017-01-26T07:24:37.341Z,660
2017-01-26T07:25:17.936Z,660
2017-01-26T07:25:58.526Z,660
2017-01-26T07:26:39.119Z,660
2017-01-26T07:27:19.710Z,660
2017-01-26T07:28:00.325Z,660
2017-01-26T07:28:40.911Z,660
2017-01-26T07:29:21.525Z,664
2017-01-26T07:30:03.047Z,660
2017-01-26T07:30:43.672Z,660
2017-01-26T07:31:24.264Z,660
2017-01-26T07:32:04.844Z,660
2017-01-26T07:32:45.448Z,664
2017-01-26T07:33:26.117Z,664
2017-01-26T07:34:06.687Z,660
2017-01-26T07:34:47.296Z,660
2017-01-26T07:35:27.874Z,660
2017-01-26T07:36:08.466Z,660
2017-01-26T07:36:49.065Z,664
2017-01-26T07:37:29.653Z,664
2017-01-26T07:38:10.255Z,660
2017-01-26T07:38:50.846Z,664
2017-01-26T07:39:31.442Z,664
2017-01-26T07:40:12.054Z,660
2017-01-26T07:40:52.677Z,664
2017-01-26T07:41:33.259Z,664
2017-01-26T07:42:13.843Z,664
2017-01-26T07:42:54.432Z,664
2017-01-26T07:43:35.065Z,664
2017-01-26T07:44:15.681Z,664
2017-01-26T07:44:56.269Z,664
2017-01-26T07:45:36.872Z,664
2017-01-26T07:46:17.487Z,668
2017-01-26T07:46:58.076Z,668
2017-01-26T07:47:38.674Z,664
2017-01-26T07:48:19.266Z,668
2017-01-26T07:48:59.905Z,668
2017-01-26T07:49:40.464Z,668
2017-01-26T07:50:21.047Z,664
2017-01-26T07:51:01.663Z,668
2017-01-26T07:51:42.278Z,668
2017-01-26T07:52:22.843Z,668
2017-01-26T07:53:03.450Z,668
2017-01-26T07:53:44.045Z,672
2017-01-26T07:54:24.656Z,672
2017-01-26T07:55:05.255Z,672
2017-01-26T07:55:45.883Z,672
2017-01-26T07:56:26.478Z,672
2017-01-26T07:57:07.104Z,672
2017-01-26T07:57:47.699Z,676
2017-01-26T07:58:28.307Z,676
2017-01-26T07:59:08.972Z,676
2017-01-26T07:59:49.504Z,676
2017-01-26T08:00:30.111Z,676
2017-01-26T08:01:10.702Z,676
2017-01-26T08:01:51.316Z,672
2017-01-26T08:02:31.932Z,676
2017-01-26T08:03:12.521Z,676
2017-01-26T08:03:53.107Z,680
2017-01-26T08:04:33.714Z,680
2017-01-26T08:05:14.320Z,680
2017-01-26T08:05:54.936Z,680
2017-01-26T08:06:35.523Z,676
2017-01-26T08:07:16.125Z,676
2017-01-26T08:07:56.737Z,680
2017-01-26T08:08:37.334Z,676
2017-01-26T08:09:17.950Z,676
2017-01-26T08:09:58.549Z,680
2017-01-26T08:10:39.158Z,676
2017-01-26T08:11:19.756Z,676
2017-01-26T08:12:00.381Z,676
2017-01-26T08:12:40.970Z,676
2017-01-26T08:13:21.585Z,672
2017-01-26T08:14:02.204Z,672
2017-01-26T08:14:42.832Z,672
2017-01-26T08:15:23.429Z,672
2017-01-26T08:16:04.052Z,672
2017-01-26T08:16:44.673Z,672
2017-01-26T08:17:25.272Z,672
2017-01-26T08:18:05.866Z,668
2017-01-26T08:18:46.482Z,672
2017-01-26T08:19:27.105Z,672
2017-01-26T08:20:07.725Z,672
2017-01-26T08:20:48.291Z,672
2017-01-26T08:21:28.880Z,672
2017-01-26T08:22:09.495Z,672
2017-01-26T08:22:50.096Z,672
2017-01-26T08:23:30.680Z,672
2017-01-26T08:24:11.259Z,672
2017-01-26T08:24:51.846Z,676
2017-01-26T08:25:32.463Z,676
2017-01-26T08:26:13.055Z,680
2017-01-26T08:26:53.677Z,680
2017-01-26T08:27:34.263Z,680
2017-01-26T08:28:14.838Z,680
2017-01-26T08:28:55.427Z,676
2017-01-26T08:29:36.034Z,680
2017-01-26T08:30:16.640Z,684
2017-01-26T08:30:57.237Z,680
2017-01-26T08:31:37.877Z,680
2017-01-26T08:32:18.687Z,680
2017-01-26T08:33:00.448Z,680
2017-01-26T08:33:41.145Z,680
2017-01-26T08:34:21.772Z,680
2017-01-26T08:35:02.431Z,676
2017-01-26T08:35:43.019Z,676
2017-01-26T08:36:23.613Z,676
2017-01-26T08:37:04.220Z,680
2017-01-26T08:37:44.817Z,680
2017-01-26T08:38:25.418Z,680
2017-01-26T08:39:06.025Z,680
2017-01-26T08:39:46.621Z,684
2017-01-26T08:40:27.223Z,684
2017-01-26T08:41:07.828Z,684
2017-01-26T08:41:48.426Z,684
2017-01-26T08:42:29.024Z,684
2017-01-26T08:43:09.627Z,684
2017-01-26T08:43:50.238Z,688
2017-01-26T08:44:30.832Z,688
2017-01-26T08:45:11.440Z,688
2017-01-26T08:45:52.034Z,688
2017-01-26T08:46:32.643Z,684
2017-01-26T08:47:13.243Z,684
2017-01-26T08:47:53.857Z,684
2017-01-26T08:48:34.469Z,684
2017-01-26T08:49:15.075Z,688
2017-01-26T08:49:55.661Z,684
2017-01-26T08:50:36.276Z,684
2017-01-26T08:51:16.874Z,684
2017-01-26T08:51:57.467Z,684
2017-01-26T08:52:38.060Z,684
2017-01-26T08:53:18.639Z,684
2017-01-26T08:53:59.236Z,684
2017-01-26T08:54:39.853Z,680
2017-01-26T08:55:20.447Z,684
2017-01-26T08:56:01.047Z,680
2017-01-26T08:56:41.647Z,680
2017-01-26T08:57:22.239Z,680
2017-01-26T08:58:02.845Z,680
2017-01-26T08:58:43.467Z,684
2017-01-26T08:59:24.063Z,680
2017-01-26T09:00:04.694Z,680
2017-01-26T09:00:45.300Z,684
2017-01-26T09:01:25.928Z,684
2017-01-26T09:02:06.528Z,684
2017-01-26T09:02:47.128Z,684
2017-01-26T09:03:27.733Z,684
2017-01-26T09:04:08.351Z,680
2017-01-26T09:04:48.911Z,680
2017-01-26T09:05:29.530Z,680
2017-01-26T09:06:10.126Z,680
2017-01-26T09:06:50.751Z,680
2017-01-26T09:07:31.367Z,680
2017-01-26T09:08:11.970Z,680
2017-01-26T09:08:52.587Z,680
2017-01-26T09:09:33.203Z,676
2017-01-26T09:10:13.806Z,676
2017-01-26T09:10:54.393Z,676
2017-01-26T09:11:34.985Z,676
2017-01-26T09:12:15.582Z,676
2017-01-26T09:12:56.212Z,672
2017-01-26T09:13:36.822Z,680
2017-01-26T09:14:17.424Z,684
2017-01-26T09:14:58.021Z,676
2017-01-26T09:15:38.610Z,676
2017-01-26T09:16:19.239Z,676
2017-01-26T09:16:59.829Z,676
2017-01-26T09:17:40.421Z,676
2017-01-26T09:18:21.009Z,676
2017-01-26T09:19:01.618Z,680